createdAt,value
2023-10-03T00:00:19.041Z,467.00
2023-10-03T00:00:49.195Z,468.00
2023-10-03T00:01:19.196Z,469.00
2023-10-03T00:01:49.278Z,469.00
2023-10-03T00:02:19.385Z,467.00
2023-10-03T00:02:49.634Z,467.00
2023-10-03T00:03:19.596Z,468.00
2023-10-03T00:03:49.701Z,466.00
2023-10-03T00:04:19.704Z,466.00
2023-10-03T00:04:49.762Z,469.00
2023-10-03T00:05:19.905Z,469.00
2023-10-03T00:05:49.889Z,470.00
2023-10-03T00:06:49.888Z,470.00
2023-10-03T00:07:19.966Z,471.00
2023-10-03T00:07:50.044Z,471.00
2023-10-03T00:08:20.268Z,472.00
2023-10-03T00:08:50.224Z,474.00
2023-10-03T00:09:20.228Z,473.00
2023-10-03T00:09:50.302Z,471.00
2023-10-03T00:10:20.376Z,470.00
2023-10-03T00:10:50.454Z,471.00
2023-10-03T00:11:20.599Z,473.00
2023-10-03T00:11:50.587Z,474.00
2023-10-03T00:12:20.665Z,473.00
2023-10-03T00:12:50.742Z,473.00
2023-10-03T00:13:20.818Z,474.00
2023-10-03T00:13:50.889Z,473.00
2023-10-03T00:14:20.976Z,472.00
2023-10-03T00:14:51.063Z,472.00
2023-10-03T00:15:21.165Z,472.00
2023-10-03T00:15:51.248Z,470.00
2023-10-03T00:16:21.301Z,469.00
2023-10-03T00:16:51.382Z,470.00
2023-10-03T00:17:21.464Z,471.00
2023-10-03T00:17:51.589Z,470.00
2023-10-03T00:18:21.570Z,470.00
2023-10-03T00:18:51.559Z,472.00
2023-10-03T00:19:21.657Z,471.00
2023-10-03T00:19:51.796Z,472.00
2023-10-03T00:20:21.780Z,472.00
2023-10-03T00:20:51.881Z,471.00
2023-10-03T00:21:21.839Z,471.00
2023-10-03T00:21:51.913Z,470.00
2023-10-03T00:22:21.980Z,469.00
2023-10-03T00:22:52.300Z,469.00
2023-10-03T00:23:22.101Z,469.00
2023-10-03T00:23:52.105Z,470.00
2023-10-03T00:24:22.170Z,472.00
2023-10-03T00:24:52.251Z,471.00
2023-10-03T00:25:22.321Z,472.00
2023-10-03T00:25:52.400Z,472.00
2023-10-03T00:26:22.507Z,472.00
2023-10-03T00:26:52.569Z,473.00
2023-10-03T00:27:22.637Z,473.00
2023-10-03T00:27:52.709Z,473.00
2023-10-03T00:28:22.800Z,473.00
2023-10-03T00:28:52.874Z,475.00
2023-10-03T00:29:22.979Z,474.00
2023-10-03T00:29:53.146Z,475.00
2023-10-03T00:30:23.098Z,474.00
2023-10-03T00:30:53.174Z,476.00
2023-10-03T00:31:23.301Z,477.00
2023-10-03T00:31:53.269Z,476.00
2023-10-03T00:32:23.397Z,474.00
2023-10-03T00:32:53.384Z,474.00
2023-10-03T00:33:23.495Z,473.00
2023-10-03T00:33:53.472Z,472.00
2023-10-03T00:34:23.558Z,471.00
2023-10-03T00:34:53.629Z,470.00
2023-10-03T00:35:23.719Z,469.00
2023-10-03T00:35:53.820Z,470.00
2023-10-03T00:36:23.806Z,470.00
2023-10-03T00:36:53.843Z,470.00
2023-10-03T00:37:23.916Z,472.00
2023-10-03T00:37:53.993Z,471.00
2023-10-03T00:38:24.212Z,472.00
2023-10-03T00:38:54.345Z,471.00
2023-10-03T00:39:24.242Z,471.00
2023-10-03T00:39:54.319Z,469.00
2023-10-03T00:40:24.389Z,469.00
2023-10-03T00:40:54.480Z,469.00
2023-10-03T00:41:24.568Z,469.00
2023-10-03T00:41:54.703Z,470.00
2023-10-03T00:42:24.656Z,470.00
2023-10-03T00:42:54.732Z,470.00
2023-10-03T00:43:24.812Z,470.00
2023-10-03T00:43:54.887Z,469.00
2023-10-03T00:44:25.022Z,468.00
2023-10-03T00:44:55.088Z,468.00
2023-10-03T00:45:25.175Z,468.00
2023-10-03T00:45:55.247Z,466.00
2023-10-03T00:46:25.390Z,466.00
2023-10-03T00:46:55.329Z,466.00
2023-10-03T00:47:25.449Z,467.00
2023-10-03T00:47:55.615Z,469.00
2023-10-03T00:48:25.588Z,469.00
2023-10-03T00:48:55.529Z,469.00
2023-10-03T00:49:25.551Z,466.00
2023-10-03T00:49:55.583Z,465.00
2023-10-03T00:50:25.969Z,466.00
2023-10-03T00:50:55.679Z,467.00
2023-10-03T00:51:25.825Z,466.00
2023-10-03T00:51:55.786Z,465.00
2023-10-03T00:52:25.804Z,467.00
2023-10-03T00:52:55.838Z,467.00
2023-10-03T00:53:25.921Z,469.00
2023-10-03T00:53:55.910Z,469.00
2023-10-03T00:54:25.932Z,468.00
2023-10-03T00:54:55.962Z,467.00
2023-10-03T00:55:25.995Z,467.00
2023-10-03T00:55:56.031Z,466.00
2023-10-03T00:56:26.140Z,467.00
2023-10-03T00:56:56.087Z,469.00
2023-10-03T00:57:26.161Z,470.00
2023-10-03T00:57:56.189Z,470.00
2023-10-03T00:58:26.226Z,469.00
2023-10-03T00:58:56.303Z,468.00
2023-10-03T00:59:26.406Z,468.00
2023-10-03T00:59:56.443Z,468.00
2023-10-03T01:00:26.519Z,466.00
2023-10-03T01:00:56.641Z,467.00
2023-10-03T01:01:26.706Z,468.00
2023-10-03T01:01:56.801Z,467.00
2023-10-03T01:02:27.160Z,467.00
2023-10-03T01:02:57.085Z,468.00
2023-10-03T01:03:27.084Z,469.00
2023-10-03T01:03:57.331Z,468.00
2023-10-03T01:04:27.230Z,468.00
2023-10-03T01:04:57.210Z,469.00
2023-10-03T01:05:27.311Z,470.00
2023-10-03T01:05:57.374Z,471.00
2023-10-03T01:06:27.486Z,473.00
2023-10-03T01:06:57.555Z,476.00
2023-10-03T01:07:27.650Z,476.00
2023-10-03T01:07:57.694Z,477.00
2023-10-03T01:08:27.784Z,476.00
2023-10-03T01:08:57.860Z,476.00
2023-10-03T01:09:27.925Z,477.00
2023-10-03T01:09:57.990Z,476.00
2023-10-03T01:10:28.097Z,475.00
2023-10-03T01:10:58.173Z,474.00
2023-10-03T01:11:28.322Z,473.00
2023-10-03T01:11:58.304Z,473.00
2023-10-03T01:12:28.375Z,473.00
2023-10-03T01:12:58.468Z,472.00
2023-10-03T01:13:28.555Z,472.00
2023-10-03T01:13:58.619Z,472.00
2023-10-03T01:14:28.709Z,472.00
2023-10-03T01:14:58.768Z,471.00
2023-10-03T01:15:28.844Z,471.00
2023-10-03T01:15:58.937Z,472.00
2023-10-03T01:16:29.072Z,473.00
2023-10-03T01:16:59.022Z,472.00
2023-10-03T01:17:29.141Z,472.00
2023-10-03T01:17:59.253Z,469.00
2023-10-03T01:18:29.252Z,470.00
2023-10-03T01:18:59.335Z,472.00
2023-10-03T01:19:29.307Z,473.00
2023-10-03T01:19:59.381Z,473.00
2023-10-03T01:20:29.493Z,474.00
2023-10-03T01:20:59.484Z,472.00
2023-10-03T01:21:29.543Z,471.00
2023-10-03T01:21:59.629Z,471.00
2023-10-03T01:22:29.686Z,470.00
2023-10-03T01:22:59.781Z,471.00
2023-10-03T01:23:29.836Z,470.00
2023-10-03T01:23:59.937Z,470.00
2023-10-03T01:24:30.012Z,470.00
2023-10-03T01:25:00.191Z,469.00
2023-10-03T01:25:30.183Z,470.00
2023-10-03T01:26:00.254Z,471.00
2023-10-03T01:26:30.348Z,472.00
2023-10-03T01:27:00.472Z,470.00
2023-10-03T01:27:30.463Z,472.00
2023-10-03T01:28:00.550Z,472.00
2023-10-03T01:28:30.629Z,472.00
2023-10-03T01:29:00.944Z,472.00
2023-10-03T01:29:30.758Z,472.00
2023-10-03T01:30:00.721Z,472.00
2023-10-03T01:30:30.823Z,471.00
2023-10-03T01:31:00.953Z,472.00
2023-10-03T01:31:30.902Z,471.00
2023-10-03T01:32:00.969Z,472.00
2023-10-03T01:32:31.130Z,472.00
2023-10-03T01:33:01.137Z,471.00
2023-10-03T01:33:31.132Z,471.00
2023-10-03T01:34:01.200Z,472.00
2023-10-03T01:34:31.278Z,472.00
2023-10-03T01:35:01.373Z,473.00
2023-10-03T01:35:31.492Z,473.00
2023-10-03T01:36:01.463Z,474.00
2023-10-03T01:36:31.535Z,474.00
2023-10-03T01:37:01.625Z,475.00
2023-10-03T01:37:31.699Z,474.00
2023-10-03T01:38:01.786Z,474.00
2023-10-03T01:38:31.939Z,475.00
2023-10-03T01:39:02.120Z,476.00
2023-10-03T01:39:31.945Z,476.00
2023-10-03T01:40:02.025Z,476.00
2023-10-03T01:40:32.107Z,475.00
2023-10-03T01:41:02.309Z,473.00
2023-10-03T01:41:32.299Z,472.00
2023-10-03T01:42:02.389Z,472.00
2023-10-03T01:42:32.449Z,471.00
2023-10-03T01:43:02.516Z,469.00
2023-10-03T01:43:32.607Z,468.00
2023-10-03T01:44:02.677Z,468.00
2023-10-03T01:44:32.797Z,468.00
2023-10-03T01:45:02.860Z,469.00
2023-10-03T01:45:32.933Z,468.00
2023-10-03T01:46:03.041Z,468.00
2023-10-03T01:46:33.136Z,468.00
2023-10-03T01:47:03.117Z,469.00
2023-10-03T01:47:33.244Z,468.00
2023-10-03T01:48:03.242Z,467.00
2023-10-03T01:48:33.230Z,466.00
2023-10-03T01:49:03.487Z,466.00
2023-10-03T01:49:33.332Z,466.00
2023-10-03T01:50:03.378Z,465.00
2023-10-03T01:50:33.441Z,464.00
2023-10-03T01:51:03.610Z,463.00
2023-10-03T01:51:33.536Z,463.00
2023-10-03T01:52:03.577Z,463.00
2023-10-03T01:52:33.603Z,462.00
2023-10-03T01:53:03.663Z,463.00
2023-10-03T01:53:33.768Z,463.00
2023-10-03T01:54:03.801Z,461.00
2023-10-03T01:54:33.852Z,461.00
2023-10-03T01:55:03.871Z,462.00
2023-10-03T01:55:33.908Z,463.00
2023-10-03T01:56:03.946Z,463.00
2023-10-03T01:56:34.009Z,463.00
2023-10-03T01:57:04.065Z,462.00
2023-10-03T01:57:34.126Z,463.00
2023-10-03T01:58:04.163Z,462.00
2023-10-03T01:58:34.218Z,463.00
2023-10-03T01:59:04.388Z,462.00
2023-10-03T01:59:34.418Z,462.00
2023-10-03T02:00:04.476Z,462.00
2023-10-03T02:00:34.544Z,463.00
2023-10-03T02:01:04.630Z,461.00
2023-10-03T02:01:34.746Z,463.00
2023-10-03T02:02:04.814Z,465.00
2023-10-03T02:02:34.907Z,468.00
2023-10-03T02:03:05.044Z,469.00
2023-10-03T02:03:34.966Z,468.00
2023-10-03T02:04:05.003Z,467.00
2023-10-03T02:04:35.190Z,467.00
2023-10-03T02:05:05.145Z,467.00
2023-10-03T02:05:35.385Z,465.00
2023-10-03T02:06:05.258Z,466.00
2023-10-03T02:06:35.340Z,467.00
2023-10-03T02:07:05.401Z,467.00
2023-10-03T02:07:35.485Z,467.00
2023-10-03T02:08:05.552Z,468.00
2023-10-03T02:08:35.673Z,469.00
2023-10-03T02:09:06.021Z,470.00
2023-10-03T02:09:35.797Z,471.00
2023-10-03T02:10:05.870Z,473.00
2023-10-03T02:10:35.935Z,474.00
2023-10-03T02:11:06.004Z,474.00
2023-10-03T02:11:36.157Z,473.00
2023-10-03T02:12:06.096Z,473.00
2023-10-03T02:12:36.168Z,471.00
2023-10-03T02:13:06.245Z,470.00
2023-10-03T02:13:36.460Z,469.00
2023-10-03T02:14:06.381Z,468.00
2023-10-03T02:14:36.494Z,469.00
2023-10-03T02:15:06.639Z,469.00
2023-10-03T02:15:36.588Z,468.00
2023-10-03T02:16:06.683Z,468.00
2023-10-03T02:16:36.766Z,466.00
2023-10-03T02:17:06.734Z,464.00
2023-10-03T02:17:36.844Z,465.00
2023-10-03T02:18:06.928Z,467.00
2023-10-03T02:18:36.946Z,468.00
2023-10-03T02:19:07.012Z,469.00
2023-10-03T02:19:37.076Z,468.00
2023-10-03T02:20:07.146Z,469.00
2023-10-03T02:20:37.308Z,470.00
2023-10-03T02:21:07.280Z,468.00
2023-10-03T02:21:37.358Z,467.00
2023-10-03T02:22:07.434Z,466.00
2023-10-03T02:22:37.502Z,466.00
2023-10-03T02:23:07.582Z,465.00
2023-10-03T02:23:37.764Z,464.00
2023-10-03T02:24:07.696Z,465.00
2023-10-03T02:24:37.768Z,464.00
2023-10-03T02:25:07.842Z,464.00
2023-10-03T02:25:37.932Z,465.00
2023-10-03T02:26:08.009Z,466.00
2023-10-03T02:26:38.131Z,466.00
2023-10-03T02:27:08.118Z,466.00
2023-10-03T02:27:38.215Z,465.00
2023-10-03T02:28:08.278Z,463.00
2023-10-03T02:28:38.361Z,462.00
2023-10-03T02:29:08.436Z,461.00
2023-10-03T02:29:38.524Z,461.00
2023-10-03T02:30:08.612Z,461.00
2023-10-03T02:30:38.692Z,461.00
2023-10-03T02:31:09.122Z,459.00
2023-10-03T02:31:38.934Z,460.00
2023-10-03T02:32:08.887Z,459.00
2023-10-03T02:32:39.055Z,463.00
2023-10-03T02:33:09.141Z,463.00
2023-10-03T02:33:39.110Z,464.00
2023-10-03T02:34:09.163Z,463.00
2023-10-03T02:34:39.253Z,463.00
2023-10-03T02:35:09.340Z,463.00
2023-10-03T02:35:39.469Z,462.00
2023-10-03T02:36:09.473Z,463.00
2023-10-03T02:36:39.551Z,462.00
2023-10-03T02:37:09.617Z,461.00
2023-10-03T02:37:39.681Z,462.00
2023-10-03T02:38:09.769Z,461.00
2023-10-03T02:38:40.125Z,460.00
2023-10-03T02:39:09.890Z,461.00
2023-10-03T02:39:39.968Z,460.00
2023-10-03T02:40:10.048Z,461.00
2023-10-03T02:40:40.117Z,460.00
2023-10-03T02:41:10.188Z,459.00
2023-10-03T02:41:42.767Z,460.00
2023-10-03T02:42:10.366Z,460.00
2023-10-03T02:42:40.432Z,459.00
2023-10-03T02:43:10.505Z,458.00
2023-10-03T02:43:40.581Z,459.00
2023-10-03T02:44:10.928Z,459.00
2023-10-03T02:44:40.807Z,459.00
2023-10-03T02:45:40.799Z,458.00
2023-10-03T02:46:10.902Z,458.00
2023-10-03T02:46:40.874Z,456.00
2023-10-03T02:47:10.957Z,457.00
2023-10-03T02:47:41.257Z,456.00
2023-10-03T02:48:11.213Z,456.00
2023-10-03T02:48:41.285Z,455.00
2023-10-03T02:49:11.319Z,456.00
2023-10-03T02:49:41.355Z,457.00
2023-10-03T02:50:11.392Z,457.00
2023-10-03T02:50:41.456Z,459.00
2023-10-03T02:51:11.494Z,460.00
2023-10-03T02:51:41.530Z,461.00
2023-10-03T02:52:11.581Z,460.00
2023-10-03T02:52:41.592Z,460.00
2023-10-03T02:53:11.625Z,460.00
2023-10-03T02:53:41.798Z,460.00
2023-10-03T02:54:11.749Z,462.00
2023-10-03T02:54:41.779Z,463.00
2023-10-03T02:55:11.816Z,464.00
2023-10-03T02:55:41.845Z,466.00
2023-10-03T02:56:11.870Z,464.00
2023-10-03T02:56:41.982Z,462.00
2023-10-03T02:57:11.916Z,462.00
2023-10-03T02:57:41.977Z,461.00
2023-10-03T02:58:11.997Z,462.00
2023-10-03T02:58:42.058Z,461.00
2023-10-03T02:59:12.126Z,463.00
2023-10-03T02:59:42.226Z,464.00
2023-10-03T03:00:12.306Z,463.00
2023-10-03T03:00:42.371Z,464.00
2023-10-03T03:01:12.523Z,465.00
2023-10-03T03:01:42.505Z,465.00
2023-10-03T03:02:12.567Z,465.00
2023-10-03T03:02:42.749Z,467.00
2023-10-03T03:03:12.738Z,467.00
2023-10-03T03:03:42.846Z,468.00
2023-10-03T03:04:12.878Z,467.00
2023-10-03T03:04:42.865Z,466.00
2023-10-03T03:05:12.941Z,467.00
2023-10-03T03:05:43.049Z,467.00
2023-10-03T03:06:13.202Z,468.00
2023-10-03T03:06:43.247Z,470.00
2023-10-03T03:07:13.342Z,470.00
2023-10-03T03:07:43.445Z,470.00
2023-10-03T03:08:13.516Z,470.00
2023-10-03T03:08:43.600Z,468.00
2023-10-03T03:09:13.684Z,469.00
2023-10-03T03:09:43.728Z,470.00
2023-10-03T03:10:13.807Z,470.00
2023-10-03T03:10:43.870Z,472.00
2023-10-03T03:11:13.946Z,472.00
2023-10-03T03:11:44.041Z,471.00
2023-10-03T03:12:14.132Z,471.00
2023-10-03T03:12:44.242Z,469.00
2023-10-03T03:13:14.323Z,468.00
2023-10-03T03:13:44.381Z,467.00
2023-10-03T03:14:14.444Z,467.00
2023-10-03T03:14:44.551Z,466.00
2023-10-03T03:15:14.605Z,465.00
2023-10-03T03:15:44.697Z,465.00
2023-10-03T03:16:14.810Z,466.00
2023-10-03T03:16:44.883Z,467.00
2023-10-03T03:17:15.297Z,465.00
2023-10-03T03:17:45.164Z,465.00
2023-10-03T03:18:15.229Z,465.00
2023-10-03T03:18:45.618Z,467.00
2023-10-03T03:19:15.210Z,468.00
2023-10-03T03:19:45.291Z,469.00
2023-10-03T03:20:15.355Z,468.00
2023-10-03T03:20:45.507Z,468.00
2023-10-03T03:21:15.946Z,467.00
2023-10-03T03:21:45.563Z,467.00
2023-10-03T03:22:15.624Z,466.00
2023-10-03T03:22:45.696Z,467.00
2023-10-03T03:23:15.774Z,468.00
2023-10-03T03:23:45.884Z,468.00
2023-10-03T03:24:15.968Z,466.00
2023-10-03T03:24:46.013Z,466.00
2023-10-03T03:25:16.084Z,466.00
2023-10-03T03:25:46.165Z,466.00
2023-10-03T03:26:16.324Z,466.00
2023-10-03T03:26:46.275Z,469.00
2023-10-03T03:27:16.355Z,468.00
2023-10-03T03:27:46.438Z,468.00
2023-10-03T03:28:16.522Z,467.00
2023-10-03T03:28:46.593Z,467.00
2023-10-03T03:29:16.651Z,467.00
2023-10-03T03:29:46.827Z,466.00
2023-10-03T03:30:16.846Z,466.00
2023-10-03T03:30:46.912Z,465.00
2023-10-03T03:31:16.994Z,465.00
2023-10-03T03:31:47.085Z,465.00
2023-10-03T03:32:17.070Z,467.00
2023-10-03T03:32:47.211Z,466.00
2023-10-03T03:33:17.266Z,467.00
2023-10-03T03:33:47.411Z,466.00
2023-10-03T03:34:17.309Z,466.00
2023-10-03T03:34:47.298Z,466.00
2023-10-03T03:35:17.419Z,467.00
2023-10-03T03:35:47.529Z,469.00
2023-10-03T03:36:17.579Z,469.00
2023-10-03T03:36:47.784Z,469.00
2023-10-03T03:37:17.653Z,467.00
2023-10-03T03:37:47.732Z,467.00
2023-10-03T03:38:17.806Z,469.00
2023-10-03T03:38:47.904Z,469.00
2023-10-03T03:39:17.981Z,470.00
2023-10-03T03:39:48.055Z,469.00
2023-10-03T03:40:18.136Z,469.00
2023-10-03T03:40:48.205Z,469.00
2023-10-03T03:41:18.465Z,468.00
2023-10-03T03:41:48.380Z,467.00
2023-10-03T03:42:18.340Z,466.00
2023-10-03T03:42:48.405Z,463.00
2023-10-03T03:43:18.477Z,463.00
2023-10-03T03:43:48.553Z,461.00
2023-10-03T03:44:18.652Z,462.00
2023-10-03T03:44:48.796Z,463.00
2023-10-03T03:45:18.749Z,464.00
2023-10-03T03:45:48.855Z,464.00
2023-10-03T03:46:18.937Z,464.00
2023-10-03T03:46:49.007Z,464.00
2023-10-03T03:47:19.120Z,463.00
2023-10-03T03:47:49.263Z,463.00
2023-10-03T03:48:19.322Z,464.00
2023-10-03T03:48:49.280Z,465.00
2023-10-03T03:49:19.321Z,465.00
2023-10-03T03:49:49.359Z,466.00
2023-10-03T03:50:19.416Z,466.00
2023-10-03T03:50:49.476Z,466.00
2023-10-03T03:51:19.515Z,465.00
2023-10-03T03:51:49.553Z,463.00
2023-10-03T03:52:19.615Z,462.00
2023-10-03T03:52:49.642Z,462.00
2023-10-03T03:53:19.711Z,463.00
2023-10-03T03:53:49.781Z,463.00
2023-10-03T03:54:19.795Z,462.00
2023-10-03T03:54:49.855Z,462.00
2023-10-03T03:55:19.866Z,462.00
2023-10-03T03:55:49.905Z,461.00
2023-10-03T03:56:19.950Z,460.00
2023-10-03T03:56:50.079Z,458.00
2023-10-03T03:57:19.980Z,457.00
2023-10-03T03:57:50.013Z,458.00
2023-10-03T03:58:20.057Z,458.00
2023-10-03T03:58:50.255Z,457.00
2023-10-03T03:59:20.250Z,460.00
2023-10-03T03:59:50.237Z,460.00
2023-10-03T04:00:20.198Z,459.00
2023-10-03T04:00:50.291Z,460.00
2023-10-03T04:01:20.389Z,460.00
2023-10-03T04:01:50.458Z,460.00
2023-10-03T04:02:20.612Z,462.00
2023-10-03T04:02:50.652Z,463.00
2023-10-03T04:03:20.723Z,462.00
2023-10-03T04:03:50.760Z,461.00
2023-10-03T04:04:20.769Z,461.00
2023-10-03T04:04:50.831Z,460.00
2023-10-03T04:05:20.902Z,459.00
2023-10-03T04:05:51.019Z,459.00
2023-10-03T04:06:21.130Z,459.00
2023-10-03T04:06:51.117Z,460.00
2023-10-03T04:07:21.193Z,461.00
2023-10-03T04:07:51.272Z,461.00
2023-10-03T04:08:21.367Z,462.00
2023-10-03T04:09:06.789Z,463.00
2023-10-03T04:09:21.626Z,464.00
2023-10-03T04:09:51.557Z,464.00
2023-10-03T04:10:21.950Z,464.00
2023-10-03T04:10:51.737Z,464.00
2023-10-03T04:11:51.847Z,464.00
2023-10-03T04:12:21.943Z,465.00
2023-10-03T04:12:52.030Z,465.00
2023-10-03T04:13:22.093Z,465.00
2023-10-03T04:13:52.164Z,464.00
2023-10-03T04:14:22.264Z,465.00
2023-10-03T04:14:52.363Z,465.00
2023-10-03T04:15:22.412Z,466.00
2023-10-03T04:15:52.501Z,465.00
2023-10-03T04:16:22.600Z,466.00
2023-10-03T04:16:52.667Z,465.00
2023-10-03T04:17:22.835Z,465.00
2023-10-03T04:17:52.877Z,464.00
2023-10-03T04:18:23.046Z,463.00
2023-10-03T04:18:53.030Z,464.00
2023-10-03T04:19:23.108Z,464.00
2023-10-03T04:19:53.175Z,464.00
2023-10-03T04:20:23.277Z,464.00
2023-10-03T04:20:53.364Z,464.00
2023-10-03T04:21:23.445Z,463.00
2023-10-03T04:21:53.534Z,463.00
2023-10-03T04:22:23.612Z,463.00
2023-10-03T04:22:53.702Z,462.00
2023-10-03T04:23:23.821Z,463.00
2023-10-03T04:23:53.755Z,462.00
2023-10-03T04:24:23.861Z,462.00
2023-10-03T04:24:53.921Z,462.00
2023-10-03T04:25:24.000Z,461.00
2023-10-03T04:25:54.086Z,462.00
2023-10-03T04:26:24.195Z,462.00
2023-10-03T04:26:54.355Z,463.00
2023-10-03T04:27:24.289Z,463.00
2023-10-03T04:27:54.360Z,462.00
2023-10-03T04:28:24.429Z,460.00
2023-10-03T04:28:54.506Z,459.00
2023-10-03T04:29:24.612Z,461.00
2023-10-03T04:29:54.632Z,461.00
2023-10-03T04:30:24.603Z,462.00
2023-10-03T04:30:54.751Z,462.00
2023-10-03T04:31:24.785Z,462.00
2023-10-03T04:31:54.719Z,464.00
2023-10-03T04:32:24.872Z,465.00
2023-10-03T04:32:54.922Z,465.00
2023-10-03T04:33:25.052Z,466.00
2023-10-03T04:33:55.052Z,465.00
2023-10-03T04:34:25.125Z,466.00
2023-10-03T04:34:55.217Z,467.00
2023-10-03T04:35:25.364Z,467.00
2023-10-03T04:35:55.371Z,466.00
2023-10-03T04:36:25.383Z,467.00
2023-10-03T04:36:55.463Z,468.00
2023-10-03T04:37:25.534Z,469.00
2023-10-03T04:37:55.602Z,468.00
2023-10-03T04:38:25.709Z,468.00
2023-10-03T04:38:55.791Z,466.00
2023-10-03T04:39:25.778Z,465.00
2023-10-03T04:39:55.846Z,464.00
2023-10-03T04:40:25.941Z,465.00
2023-10-03T04:40:56.024Z,463.00
2023-10-03T04:41:26.226Z,464.00
2023-10-03T04:41:56.190Z,462.00
2023-10-03T04:42:26.425Z,461.00
2023-10-03T04:42:56.317Z,463.00
2023-10-03T04:43:26.271Z,463.00
2023-10-03T04:43:56.335Z,465.00
2023-10-03T04:44:26.444Z,464.00
2023-10-03T04:44:56.544Z,465.00
2023-10-03T04:45:26.588Z,465.00
2023-10-03T04:45:56.555Z,466.00
2023-10-03T04:46:26.644Z,466.00
2023-10-03T04:46:56.714Z,465.00
2023-10-03T04:47:26.839Z,465.00
2023-10-03T04:47:56.981Z,463.00
2023-10-03T04:48:27.025Z,464.00
2023-10-03T04:48:56.957Z,463.00
2023-10-03T04:49:27.002Z,462.00
2023-10-03T04:49:57.059Z,463.00
2023-10-03T04:50:27.466Z,464.00
2023-10-03T04:50:57.207Z,464.00
2023-10-03T04:51:27.248Z,462.00
2023-10-03T04:51:57.268Z,464.00
2023-10-03T04:52:27.290Z,463.00
2023-10-03T04:52:57.324Z,465.00
2023-10-03T04:53:27.421Z,465.00
2023-10-03T04:53:59.659Z,465.00
2023-10-03T04:54:27.451Z,464.00
2023-10-03T04:54:57.476Z,464.00
2023-10-03T04:55:27.506Z,465.00
2023-10-03T04:55:57.541Z,465.00
2023-10-03T04:56:27.608Z,465.00
2023-10-03T04:56:57.708Z,463.00
2023-10-03T04:57:27.730Z,462.00
2023-10-03T04:57:57.773Z,461.00
2023-10-03T04:58:27.823Z,460.00
2023-10-03T04:58:57.913Z,459.00
2023-10-03T04:59:28.000Z,459.00
2023-10-03T04:59:58.118Z,460.00
2023-10-03T05:00:28.178Z,460.00
2023-10-03T05:00:58.255Z,459.00
2023-10-03T05:01:28.387Z,459.00
2023-10-03T05:01:58.337Z,460.00
2023-10-03T05:02:28.555Z,460.00
2023-10-03T05:02:58.615Z,460.00
2023-10-03T05:03:28.598Z,462.00
2023-10-03T05:03:58.749Z,461.00
2023-10-03T05:04:28.637Z,462.00
2023-10-03T05:04:58.627Z,462.00
2023-10-03T05:05:28.717Z,462.00
2023-10-03T05:05:58.865Z,463.00
2023-10-03T05:06:28.908Z,463.00
2023-10-03T05:06:58.982Z,462.00
2023-10-03T05:07:29.057Z,462.00
2023-10-03T05:07:59.133Z,462.00
2023-10-03T05:08:29.234Z,461.00
2023-10-03T05:08:59.331Z,461.00
2023-10-03T05:09:29.413Z,463.00
2023-10-03T05:09:59.487Z,464.00
2023-10-03T05:10:29.548Z,462.00
2023-10-03T05:10:59.612Z,463.00
2023-10-03T05:11:29.699Z,464.00
2023-10-03T05:11:59.856Z,464.00
2023-10-03T05:12:29.814Z,464.00
2023-10-03T05:12:59.889Z,463.00
2023-10-03T05:13:29.968Z,463.00
2023-10-03T05:14:00.041Z,463.00
2023-10-03T05:14:30.157Z,464.00
2023-10-03T05:15:00.342Z,464.00
2023-10-03T05:15:30.336Z,465.00
2023-10-03T05:16:00.402Z,466.00
2023-10-03T05:16:30.533Z,468.00
2023-10-03T05:17:00.612Z,467.00
2023-10-03T05:17:30.647Z,468.00
2023-10-03T05:18:00.771Z,470.00
2023-10-03T05:18:30.851Z,471.00
2023-10-03T05:19:01.021Z,470.00
2023-10-03T05:19:30.875Z,469.00
2023-10-03T05:20:00.951Z,470.00
2023-10-03T05:20:31.063Z,470.00
2023-10-03T05:21:01.180Z,471.00
2023-10-03T05:21:31.134Z,469.00
2023-10-03T05:22:01.217Z,470.00
2023-10-03T05:22:31.285Z,470.00
2023-10-03T05:23:01.366Z,470.00
2023-10-03T05:23:31.437Z,472.00
2023-10-03T05:24:01.545Z,473.00
2023-10-03T05:24:31.593Z,471.00
2023-10-03T05:25:01.684Z,471.00
2023-10-03T05:25:31.734Z,469.00
2023-10-03T05:26:01.809Z,469.00
2023-10-03T05:26:31.971Z,467.00
2023-10-03T05:27:02.044Z,466.00
2023-10-03T05:27:31.926Z,467.00
2023-10-03T05:28:02.017Z,466.00
2023-10-03T05:28:32.072Z,465.00
2023-10-03T05:29:02.321Z,464.00
2023-10-03T05:29:32.214Z,464.00
2023-10-03T05:30:02.227Z,464.00
2023-10-03T05:30:32.161Z,464.00
2023-10-03T05:31:02.283Z,463.00
2023-10-03T05:31:32.346Z,462.00
2023-10-03T05:32:02.423Z,460.00
2023-10-03T05:32:32.555Z,460.00
2023-10-03T05:33:02.782Z,460.00
2023-10-03T05:33:32.705Z,461.00
2023-10-03T05:34:02.665Z,463.00
2023-10-03T05:34:32.733Z,464.00
2023-10-03T05:35:02.822Z,463.00
2023-10-03T05:35:32.938Z,462.00
2023-10-03T05:36:03.118Z,461.00
2023-10-03T05:36:33.096Z,460.00
2023-10-03T05:37:03.176Z,461.00
2023-10-03T05:37:33.244Z,461.00
2023-10-03T05:38:03.313Z,461.00
2023-10-03T05:38:33.455Z,461.00
2023-10-03T05:39:03.633Z,463.00
2023-10-03T05:39:33.415Z,464.00
2023-10-03T05:40:03.487Z,463.00
2023-10-03T05:40:33.578Z,463.00
2023-10-03T05:41:03.655Z,462.00
2023-10-03T05:41:33.771Z,461.00
2023-10-03T05:42:03.879Z,460.00
2023-10-03T05:42:33.873Z,461.00
2023-10-03T05:43:06.230Z,462.00
2023-10-03T05:43:34.006Z,462.00
2023-10-03T05:44:05.021Z,464.00
2023-10-03T05:44:34.218Z,464.00
2023-10-03T05:45:04.281Z,465.00
2023-10-03T05:45:34.259Z,464.00
2023-10-03T05:46:04.326Z,465.00
2023-10-03T05:46:34.431Z,464.00
2023-10-03T05:47:04.495Z,464.00
2023-10-03T05:47:34.603Z,465.00
2023-10-03T05:48:04.685Z,465.00
2023-10-03T05:48:34.759Z,466.00
2023-10-03T05:49:04.855Z,466.00
2023-10-03T05:49:34.809Z,467.00
2023-10-03T05:50:04.917Z,466.00
2023-10-03T05:50:35.176Z,466.00
2023-10-03T05:51:05.003Z,467.00
2023-10-03T05:51:34.959Z,467.00
2023-10-03T05:52:05.001Z,468.00
2023-10-03T05:52:35.028Z,466.00
2023-10-03T05:53:05.060Z,464.00
2023-10-03T05:53:35.164Z,466.00
2023-10-03T05:54:05.234Z,465.00
2023-10-03T05:54:35.276Z,464.00
2023-10-03T05:55:05.394Z,464.00
2023-10-03T05:55:35.418Z,462.00
2023-10-03T05:56:05.446Z,461.00
2023-10-03T05:56:35.519Z,460.00
2023-10-03T05:57:05.714Z,459.00
2023-10-03T05:57:35.612Z,457.00
2023-10-03T05:58:05.637Z,457.00
2023-10-03T05:58:35.703Z,456.00
2023-10-03T05:59:05.781Z,458.00
2023-10-03T05:59:35.976Z,458.00
2023-10-03T06:00:05.993Z,457.00
2023-10-03T06:00:35.936Z,458.00
2023-10-03T06:01:06.065Z,456.00
2023-10-03T06:01:36.064Z,457.00
2023-10-03T06:02:06.139Z,458.00
2023-10-03T06:02:36.317Z,458.00
2023-10-03T06:03:06.350Z,457.00
2023-10-03T06:03:36.432Z,458.00
2023-10-03T06:04:06.637Z,457.00
2023-10-03T06:04:36.451Z,458.00
2023-10-03T06:05:06.501Z,460.00
2023-10-03T06:05:36.634Z,460.00
2023-10-03T06:06:06.617Z,461.00
2023-10-03T06:06:36.674Z,462.00
2023-10-03T06:07:06.740Z,462.00
2023-10-03T06:07:36.813Z,462.00
2023-10-03T06:08:06.881Z,460.00
2023-10-03T06:08:37.005Z,460.00
2023-10-03T06:09:07.102Z,461.00
2023-10-03T06:09:37.067Z,460.00
2023-10-03T06:10:07.135Z,460.00
2023-10-03T06:10:37.209Z,459.00
2023-10-03T06:11:07.284Z,459.00
2023-10-03T06:11:37.385Z,459.00
2023-10-03T06:12:07.540Z,460.00
2023-10-03T06:12:37.488Z,461.00
2023-10-03T06:13:07.558Z,459.00
2023-10-03T06:13:37.637Z,460.00
2023-10-03T06:14:07.706Z,460.00
2023-10-03T06:14:37.792Z,459.00
2023-10-03T06:15:07.877Z,461.00
2023-10-03T06:15:37.944Z,461.00
2023-10-03T06:16:08.011Z,461.00
2023-10-03T06:16:38.127Z,460.00